Terminal Aerodrome Forecast
Issued by NWS Twin Cities, MN

Home | Current Version | Previous Version | Graphics & Text | Print | Product List | Glossary On
Versions: 1 2 3 4 5 6 7 8 9 10 11 12 13 14 15 16 17 18 19 20 21 22 23 24 25 26 27 28 29 30 31
381
FTUS43 KMPX 240917 AAA
TAFMSP
TAF AMD
KMSP 240917Z 2409/2512 07004KT P6SM SKC
     FM241200 09004KT P6SM SKC
     FM241600 13008KT P6SM SKC
     FM250000 14008KT P6SM SCT250
     FM250600 14008KT P6SM SCT150 BKN250=

USA.gov is the U.S. government's official web portal to all federal, state and local government web resources and services.